Time;durP1;ratioP1;P1;durP2;ratioP2;P2;SDS_P1;SDS_P2;PMS_P1;PMS_P2;Temp;Humidity;BMP_temperature;BMP_pressure;BME280_temperature;BME280_humidity;BME280_pressure;Samples;Min_cycle;Max_cycle;Signal;HPM_P1;HPM_P2
2022/10/04 00:00:42;;;;;;;1.42;0.55;;;;;;;11.36;78.26;100223.82;1785973;80;20884;-87
2022/10/04 00:03:20;;;;;;;0.70;0.40;;;;;;;11.34;78.43;100225.70;1786010;80;21085;-86
2022/10/04 00:05:51;;;;;;;2.47;0.50;;;;;;;11.32;78.61;100230.70;1785996;80;21452;-86
2022/10/04 00:08:44;;;;;;;2.58;0.78;;;;;;;11.29;78.79;100229.58;1785839;80;21337;-85
2022/10/04 00:11:35;;;;;;;0.95;0.40;;;;;;;11.25;78.97;100230.73;1785963;80;20928;-86
2022/10/04 00:14:15;;;;;;;0.60;0.60;;;;;;;11.20;79.18;100239.80;1785860;79;20947;-86
2022/10/04 00:16:44;;;;;;;2.22;0.70;;;;;;;11.16;79.38;100239.63;1785909;80;20884;-88
2022/10/04 00:19:37;;;;;;;0.85;0.50;;;;;;;11.13;79.57;100238.51;1785850;80;21135;-87
2022/10/04 00:22:11;;;;;;;2.85;0.62;;;;;;;11.11;79.75;100239.56;1785773;80;21417;-85
2022/10/04 00:24:40;;;;;;;0.60;0.35;;;;;;;11.06;79.92;100233.32;1786202;80;20971;-86
2022/10/04 00:27:22;;;;;;;1.32;0.30;;;;;;;11.04;80.06;100240.94;1753098;78;20923;-86
2022/10/04 00:30:07;;;;;;;0.50;0.50;;;;;;;11.01;80.22;100241.16;1788463;78;20995;-86
2022/10/04 00:32:43;;;;;;;0.95;0.40;;;;;;;10.97;80.35;100243.97;1788384;79;21207;-85
2022/10/04 00:35:30;;;;;;;1.27;0.40;;;;;;;10.95;80.43;100246.33;1788474;79;21118;-85
2022/10/04 00:37:59;;;;;;;0.25;0.20;;;;;;;10.91;80.51;100241.75;1787183;80;20904;-86
2022/10/04 00:40:36;;;;;;;0.82;0.40;;;;;;;10.88;80.61;100231.95;1786245;80;20935;-87
2022/10/04 00:43:08;;;;;;;1.40;0.68;;;;;;;10.84;80.68;100236.55;1786111;80;20955;-85
2022/10/04 00:46:01;;;;;;;0.68;0.68;;;;;;;10.81;80.79;100235.94;1757414;80;20920;-86
2022/10/04 00:48:45;;;;;;;0.50;0.40;;;;;;;10.77;80.96;100238.75;1786131;80;21394;-86
2022/10/04 00:51:40;;;;;;;1.70;0.90;;;;;;;10.74;81.11;100243.38;1786384;80;20928;-84
2022/10/04 00:54:21;;;;;;;6.47;4.08;;;;;;;10.70;81.24;100250.60;1786103;80;20864;-84
2022/10/04 00:56:51;;;;;;;1.67;0.57;;;;;;;10.67;81.44;100256.51;1786016;80;21508;-84
2022/10/04 00:59:38;;;;;;;1.82;0.90;;;;;;;10.62;81.64;100252.05;1785920;80;22057;-87
2022/10/04 01:02:34;;;;;;;1.67;0.82;;;;;;;10.58;81.89;100250.09;1712222;83;20988;-85
2022/10/04 01:05:08;;;;;;;2.15;0.90;;;;;;;10.54;82.13;100248.63;1713111;83;21013;-85
2022/10/04 01:07:42;;;;;;;0.50;0.40;;;;;;;10.51;82.41;100258.83;1713477;83;21451;-82
2022/10/04 01:10:22;;;;;;;3.00;0.83;;;;;;;10.49;82.66;100246.32;1713698;83;21041;-83
2022/10/04 01:13:20;;;;;;;1.47;0.70;;;;;;;10.47;82.90;100252.12;1713282;83;21258;-85
2022/10/04 01:16:09;;;;;;;2.83;0.75;;;;;;;10.45;83.15;100255.31;1719942;83;20964;-84
2022/10/04 01:18:36;;;;;;;1.37;1.27;;;;;;;10.43;83.45;100258.98;1726404;83;21012;-84
2022/10/04 01:21:23;;;;;;;2.85;2.20;;;;;;;10.41;83.69;100267.41;1726314;83;20937;-83
2022/10/04 01:24:00;;;;;;;1.60;0.90;;;;;;;10.38;83.89;100255.33;1726245;83;21183;-84
2022/10/04 01:26:35;;;;;;;1.35;0.62;;;;;;;10.36;84.04;100258.55;1726253;83;21293;-84
2022/10/04 01:29:14;;;;;;;1.47;0.93;;;;;;;10.32;84.13;100259.68;1726341;83;20992;-85
2022/10/04 01:31:48;;;;;;;1.60;1.07;;;;;;;10.29;84.22;100265.97;1726382;82;21398;-85
2022/10/04 01:34:18;;;;;;;0.62;0.62;;;;;;;10.28;84.32;100266.02;1725959;82;21467;-85
2022/10/04 01:36:46;;;;;;;0.75;0.60;;;;;;;10.27;84.39;100267.81;1726648;80;20969;-85
2022/10/04 01:39:13;;;;;;;2.95;1.15;;;;;;;10.25;84.44;100272.30;1794722;80;21214;-86
2022/10/04 01:41:52;;;;;;;11.08;8.80;;;;;;;10.25;84.46;100273.62;1794521;80;20959;-85
2022/10/04 01:44:27;;;;;;;1.55;1.45;;;;;;;10.23;84.47;100270.73;1794760;80;20931;-85
2022/10/04 01:46:55;;;;;;;1.77;0.55;;;;;;;10.20;84.57;100266.97;1794568;80;21610;-85
2022/10/04 01:49:26;;;;;;;1.37;0.85;;;;;;;10.19;84.67;100271.86;1794592;80;20939;-85
2022/10/04 01:52:06;;;;;;;3.35;1.02;;;;;;;10.18;84.74;100264.44;1794554;80;21872;-86
2022/10/04 01:54:43;;;;;;;8.55;7.35;;;;;;;10.15;84.90;100261.55;1794529;80;21023;-86
2022/10/04 01:57:15;;;;;;;2.67;1.47;;;;;;;10.12;85.14;100270.09;1794581;80;20979;-86
2022/10/04 01:59:53;;;;;;;0.85;0.85;;;;;;;10.11;85.27;100271.02;1794775;80;21417;-85
2022/10/04 02:02:38;;;;;;;1.77;1.12;;;;;;;10.08;85.29;100269.44;1780350;80;20983;-86
2022/10/04 02:05:07;;;;;;;6.05;3.52;;;;;;;10.08;85.36;100276.47;1794848;80;21063;-85
2022/10/04 02:07:35;;;;;;;3.05;1.22;;;;;;;10.06;85.39;100270.48;1794490;80;20840;-86
2022/10/04 02:10:05;;;;;;;1.70;1.17;;;;;;;10.03;85.39;100268.90;1795174;80;20867;-85
2022/10/04 02:12:33;;;;;;;2.00;0.70;;;;;;;10.02;85.36;100267.68;1794925;80;20935;-84
2022/10/04 02:15:01;;;;;;;0.80;0.60;;;;;;;9.99;85.36;100271.81;1794370;80;20991;-85
2022/10/04 02:17:32;;;;;;;0.60;0.60;;;;;;;9.96;85.33;100261.90;1791466;80;21153;-86
2022/10/04 02:20:00;;;;;;;0.93;0.60;;;;;;;9.95;85.39;100269.37;1791577;80;21010;-85
2022/10/04 02:22:27;;;;;;;1.62;0.65;;;;;;;9.94;85.41;100268.17;1791509;80;20884;-85
2022/10/04 02:24:55;;;;;;;1.45;0.90;;;;;;;9.93;85.43;100269.09;1791487;80;20923;-85
2022/10/04 02:27:30;;;;;;;1.98;0.78;;;;;;;9.91;85.44;100269.18;1791505;80;21421;-84
2022/10/04 02:30:02;;;;;;;5.80;0.72;;;;;;;9.91;85.44;100267.04;1791545;80;21893;-85
2022/10/04 02:35:08;;;;;;;0.68;0.68;;;;;;;9.88;85.33;100260.70;1778215;80;20935;-85
2022/10/04 02:37:35;;;;;;;4.95;0.90;;;;;;;9.85;85.29;100259.11;1791557;80;20951;-84
2022/10/04 02:40:11;;;;;;;1.35;0.85;;;;;;;9.85;85.27;100257.81;1739009;80;20915;-86
2022/10/04 02:43:02;;;;;;;2.75;0.78;;;;;;;9.83;85.18;100261.47;1790988;80;21930;-85
2022/10/04 02:45:50;;;;;;;2.20;0.80;;;;;;;9.81;85.17;100268.09;1791464;80;20963;-85
2022/10/04 02:48:28;;;;;;;0.60;0.60;;;;;;;9.79;85.14;100267.83;1791514;80;20892;-85
2022/10/04 02:51:01;;;;;;;1.65;1.00;;;;;;;9.75;85.14;100268.00;1781440;80;20877;-85
2022/10/04 02:53:36;;;;;;;1.10;0.68;;;;;;;9.77;85.14;100278.86;1790730;80;21362;-86
2022/10/04 02:56:10;;;;;;;1.20;1.10;;;;;;;9.75;85.17;100280.26;1791670;80;21246;-85
2022/10/04 02:58:44;;;;;;;2.52;0.90;;;;;;;9.71;85.11;100276.14;1765020;80;21370;-86
2022/10/04 03:01:37;;;;;;;2.20;1.27;;;;;;;9.66;85.32;100281.66;1791398;80;20983;-86
2022/10/04 03:04:04;;;;;;;1.30;1.00;;;;;;;9.63;85.36;100281.86;1791300;80;20943;-87
2022/10/04 03:06:31;;;;;;;2.08;1.00;;;;;;;9.58;85.42;100286.99;1791398;80;21472;-86
2022/10/04 03:09:00;;;;;;;1.42;1.32;;;;;;;9.53;85.54;100299.05;1791413;80;21819;-87
2022/10/04 03:11:32;;;;;;;3.33;1.20;;;;;;;9.49;85.73;100294.94;1791293;80;20896;-86
2022/10/04 03:14:01;;;;;;;3.83;1.10;;;;;;;9.46;85.97;100294.66;1791446;80;20908;-86
2022/10/04 03:16:38;;;;;;;4.87;1.10;;;;;;;9.44;86.17;100302.23;1791294;80;21401;-87
2022/10/04 03:19:04;;;;;;;3.35;1.30;;;;;;;9.43;86.26;100312.34;1791451;80;20963;-85
2022/10/04 03:21:32;;;;;;;1.20;0.98;;;;;;;9.40;86.29;100312.03;1791624;80;21369;-86
2022/10/04 03:24:00;;;;;;;1.72;1.07;;;;;;;9.38;86.38;100316.52;1791575;80;20959;-84
2022/10/04 03:26:42;;;;;;;1.75;1.00;;;;;;;9.37;86.42;100316.62;1791703;80;20928;-86
2022/10/04 03:29:11;;;;;;;4.97;1.37;;;;;;;9.37;86.36;100318.77;1792606;80;20927;-85
2022/10/04 03:31:45;;;;;;;2.17;1.30;;;;;;;9.36;86.37;100324.09;1794864;80;20904;-84
2022/10/04 03:34:23;;;;;;;1.62;1.52;;;;;;;9.36;86.34;100318.41;1793108;80;21070;-85
2022/10/04 03:36:52;;;;;;;2.47;1.70;;;;;;;9.36;86.35;100322.34;1790549;80;20990;-88
2022/10/04 03:39:39;;;;;;;1.22;1.12;;;;;;;9.36;86.36;100324.09;1791456;80;21053;-86
2022/10/04 03:42:19;;;;;;;1.47;1.17;;;;;;;9.37;86.35;100328.41;1791881;80;20945;-86
2022/10/04 03:44:47;;;;;;;1.65;1.50;;;;;;;9.37;86.30;100327.94;1794045;79;20998;-85
2022/10/04 03:47:31;;;;;;;2.90;1.98;;;;;;;9.38;86.25;100324.84;1794083;78;21088;-86
2022/10/04 03:50:02;;;;;;;3.17;1.37;;;;;;;9.38;86.23;100330.08;1793464;79;20866;-86
2022/10/04 03:52:32;;;;;;;6.30;1.67;;;;;;;9.39;86.26;100328.69;1793292;79;21675;-87
2022/10/04 03:55:03;;;;;;;4.58;1.80;;;;;;;9.37;86.16;100334.48;1791446;80;20974;-85
2022/10/04 03:57:30;;;;;;;3.37;1.55;;;;;;;9.38;86.17;100330.91;1791539;80;21491;-87
2022/10/04 03:59:57;;;;;;;4.12;1.80;;;;;;;9.38;86.18;100329.60;1792705;80;21270;-85
2022/10/04 04:02:43;;;;;;;1.95;1.30;;;;;;;9.39;86.20;100337.02;1791961;80;20888;-87
2022/10/04 04:05:23;;;;;;;5.08;1.37;;;;;;;9.38;86.17;100340.07;1786319;80;21030;-87
2022/10/04 04:08:22;;;;;;;2.10;1.82;;;;;;;9.39;86.12;100348.31;1791664;80;20923;-85
2022/10/04 04:10:51;;;;;;;5.70;2.47;;;;;;;9.40;86.05;100353.91;1787488;80;20967;-84
2022/10/04 04:13:49;;;;;;;6.03;3.50;;;;;;;9.39;86.04;100350.09;1791833;80;21140;-84
2022/10/04 04:16:18;;;;;;;3.40;1.70;;;;;;;9.40;86.03;100350.45;1791500;80;20911;-85
2022/10/04 04:18:44;;;;;;;8.20;2.52;;;;;;;9.40;86.04;100351.30;1791675;80;20951;-86
2022/10/04 04:21:15;;;;;;;2.72;1.98;;;;;;;9.40;86.07;100351.30;1791794;80;20932;-86
2022/10/04 04:24:02;;;;;;;4.37;2.27;;;;;;;9.41;86.07;100350.38;1791814;80;20967;-85
2022/10/04 04:26:42;;;;;;;5.15;3.02;;;;;;;9.43;86.10;100362.91;1792391;80;21294;-86
2022/10/04 04:29:32;;;;;;;4.10;2.75;;;;;;;9.45;86.16;100361.48;1791871;80;21445;-85
2022/10/04 04:32:07;;;;;;;3.10;2.27;;;;;;;9.46;86.14;100364.02;1791772;80;20985;-82
2022/10/04 04:34:57;;;;;;;6.83;2.37;;;;;;;9.47;86.11;100360.48;1790818;80;20901;-84
2022/10/04 04:37:23;;;;;;;5.00;2.17;;;;;;;9.50;86.13;100369.45;1726889;82;21584;-86
2022/10/04 04:39:53;;;;;;;3.70;2.58;;;;;;;9.54;86.20;100370.96;1726858;82;21272;-86
2022/10/04 04:42:30;;;;;;;3.95;2.42;;;;;;;9.60;86.26;100376.75;1727008;82;21029;-84
2022/10/04 04:45:18;;;;;;;3.00;2.12;;;;;;;9.65;86.18;100371.63;1726882;82;21640;-86
2022/10/04 04:47:51;;;;;;;6.00;2.37;;;;;;;9.81;86.45;100373.33;1726818;82;20953;-86
2022/10/04 04:50:26;;;;;;;4.12;2.08;;;;;;;10.12;86.51;100369.66;1726153;81;20961;-85
2022/10/04 04:53:15;;;;;;;2.98;2.33;;;;;;;10.37;85.60;100371.14;1726830;82;21140;-86
2022/10/04 04:55:52;;;;;;;2.35;1.70;;;;;;;10.54;84.45;100375.80;1726710;82;21012;-87
2022/10/04 04:58:23;;;;;;;2.90;2.55;;;;;;;10.62;83.74;100380.06;1726728;82;20988;-85
2022/10/04 05:01:00;;;;;;;2.85;2.17;;;;;;;10.71;83.49;100385.19;1726082;82;21486;-84
2022/10/04 05:03:28;;;;;;;7.70;3.00;;;;;;;10.87;83.41;100387.21;1726710;83;21419;-84
2022/10/04 05:05:56;;;;;;;2.92;2.25;;;;;;;11.03;82.73;100389.67;1726887;82;21769;-85
2022/10/04 05:08:26;;;;;;;2.87;2.20;;;;;;;11.14;81.90;100402.92;1726729;82;20909;-86
2022/10/04 05:11:10;;;;;;;7.03;2.40;;;;;;;11.27;81.62;100405.59;1737973;80;20926;-85
2022/10/04 05:14:01;;;;;;;4.37;2.52;;;;;;;11.53;81.70;100416.11;1791459;80;28599;-84
2022/10/04 05:16:44;;;;;;;3.33;2.25;;;;;;;11.82;80.60;100414.13;1788392;80;21386;-84
2022/10/04 05:19:29;;;;;;;4.45;2.22;;;;;;;11.96;79.25;100427.66;1791359;80;21026;-84
2022/10/04 05:21:56;;;;;;;2.63;2.10;;;;;;;12.00;78.50;100430.45;1791651;80;20997;-85
2022/10/04 05:24:43;;;;;;;3.95;2.37;;;;;;;12.00;78.04;100435.23;1791266;80;21231;-84
2022/10/04 05:27:38;;;;;;;3.58;2.60;;;;;;;12.02;77.63;100430.71;1791248;80;20939;-85
2022/10/04 05:31:29;;;;;;;7.00;2.00;;;;;;;12.21;77.38;100432.91;1797843;79;22574;-84
2022/10/04 05:33:57;;;;;;;11.55;5.58;;;;;;;12.32;77.07;100440.54;1705155;83;21018;-85
2022/10/04 05:36:41;;;;;;;5.55;3.30;;;;;;;12.64;76.82;100441.70;1695808;84;21228;-86
2022/10/04 05:39:14;;;;;;;5.47;4.20;;;;;;;13.24;76.33;100443.94;1685405;84;20938;-84
2022/10/04 05:42:07;;;;;;;2.98;2.45;;;;;;;14.23;74.21;100451.86;1696034;84;20919;-84
2022/10/04 05:44:53;;;;;;;2.40;1.90;;;;;;;15.25;70.89;100448.57;1695857;84;21385;-85
2022/10/04 05:47:22;;;;;;;4.50;2.40;;;;;;;16.41;66.80;100458.19;1695918;84;20970;-86
2022/10/04 05:49:52;;;;;;;4.50;1.70;;;;;;;17.50;62.78;100449.80;1695817;84;21122;-85
2022/10/04 05:52:35;;;;;;;6.22;2.42;;;;;;;18.40;59.86;100451.09;1695635;84;21030;-85
2022/10/04 05:55:38;;;;;;;2.80;1.60;;;;;;;19.23;56.65;100451.03;1695855;83;20979;-86
2022/10/04 05:58:24;;;;;;;2.05;1.42;;;;;;;20.09;53.97;100462.31;1695700;83;20907;-84
2022/10/04 06:01:03;;;;;;;2.55;1.27;;;;;;;20.95;51.00;100455.70;1696106;83;21436;-86
2022/10/04 06:03:46;;;;;;;2.25;1.70;;;;;;;21.64;48.97;100452.27;1696988;84;21247;-87
2022/10/04 06:06:18;;;;;;;3.72;1.20;;;;;;;22.26;47.23;100455.16;1696938;84;20950;-85
2022/10/04 06:09:08;;;;;;;2.08;1.70;;;;;;;22.85;45.55;100460.05;1696554;83;20931;-84
2022/10/04 06:12:08;;;;;;;2.08;1.95;;;;;;;23.36;44.26;100456.38;1697173;84;20958;-86
2022/10/04 06:15:09;;;;;;;5.80;4.35;;;;;;;23.88;42.44;100464.16;1640211;86;20947;-86
2022/10/04 06:18:12;;;;;;;2.67;2.05;;;;;;;24.36;40.98;100461.94;1694416;84;21169;-86
2022/10/04 06:21:09;;;;;;;1.37;1.02;;;;;;;24.76;39.73;100469.16;1657888;86;20965;-86
2022/10/04 06:23:42;;;;;;;2.67;1.47;;;;;;;25.03;38.82;100458.72;1687042;84;20997;-86
2022/10/04 06:26:20;;;;;;;33.95;31.23;;;;;;;25.31;38.39;100460.69;1603259;88;21007;-85
2022/10/04 06:28:51;;;;;;;25.02;22.87;;;;;;;25.62;37.61;100461.16;1602988;89;20998;-86
2022/10/04 06:31:47;;;;;;;2.30;1.30;;;;;;;25.90;36.83;100464.41;1594799;88;21446;-85
2022/10/04 06:34:49;;;;;;;4.05;1.42;;;;;;;26.14;36.39;100459.56;1594779;90;21083;-86
2022/10/04 06:37:39;;;;;;;2.20;1.45;;;;;;;26.41;35.83;100459.18;1595097;89;20960;-84
2022/10/04 06:40:27;;;;;;;1.40;1.30;;;;;;;26.58;35.16;100465.91;1573918;90;20916;-85
2022/10/04 06:43:23;;;;;;;1.67;1.30;;;;;;;26.73;34.45;100456.35;1593762;88;21573;-86
2022/10/04 06:46:22;;;;;;;5.42;1.17;;;;;;;26.62;34.54;100460.97;1593853;90;21151;-86
2022/10/04 06:49:29;;;;;;;1.75;1.60;;;;;;;26.70;34.42;100465.33;1593882;90;21012;-86
2022/10/04 06:52:25;;;;;;;2.83;1.32;;;;;;;26.80;34.08;100462.58;1611353;89;21565;-85
2022/10/04 06:55:21;;;;;;;5.15;3.02;;;;;;;27.02;33.81;100464.59;1610768;88;21506;-88
2022/10/04 06:58:08;;;;;;;4.33;1.70;;;;;;;27.07;33.21;100467.50;1611617;85;21016;-85
2022/10/04 07:00:58;;;;;;;2.27;1.70;;;;;;;26.78;33.52;100476.75;1612276;86;21453;-85
2022/10/04 07:03:55;;;;;;;4.03;1.57;;;;;;;26.41;33.83;100478.86;1655039;80;20911;-87
2022/10/04 07:06:38;;;;;;;5.72;1.60;;;;;;;26.29;34.31;100487.16;1722798;80;20942;-84
2022/10/04 07:09:06;;;;;;;4.08;2.37;;;;;;;26.47;34.27;100482.07;1722092;83;20892;-84
2022/10/04 07:11:54;;;;;;;6.87;6.22;;;;;;;26.58;33.32;100486.09;1723040;82;20911;-84
2022/10/04 07:14:29;;;;;;;5.37;2.12;;;;;;;26.48;33.29;100484.27;1722514;82;21142;-85
2022/10/04 07:17:04;;;;;;;5.60;3.08;;;;;;;26.40;33.25;100480.39;1721659;82;20962;-85
2022/10/04 07:19:43;;;;;;;2.67;1.45;;;;;;;26.23;33.36;100487.45;1721657;82;20946;-86
2022/10/04 07:22:34;;;;;;;2.40;1.07;;;;;;;26.19;33.43;100486.67;1721727;82;21572;-84
2022/10/04 07:31:23;;;;;;;1.37;1.27;;;;;;;27.06;32.46;100486.05;1716685;82;20927;-84
2022/10/04 07:33:54;;;;;;;1.55;1.30;;;;;;;26.99;32.12;100487.90;1713821;83;20916;-84
2022/10/04 07:36:41;;;;;;;2.58;1.10;;;;;;;26.82;32.15;100490.11;1716727;83;20920;-83
2022/10/04 07:39:22;;;;;;;1.22;0.72;;;;;;;26.87;32.24;100490.33;1708709;82;20995;-87
2022/10/04 07:42:08;;;;;;;2.77;1.50;;;;;;;27.12;31.97;100488.95;1715985;82;21238;-84
2022/10/04 07:44:40;;;;;;;1.30;1.20;;;;;;;27.39;31.52;100488.48;1715910;82;20939;-84
2022/10/04 07:47:19;;;;;;;1.25;0.80;;;;;;;27.64;31.33;100488.73;1715747;83;20999;-84
2022/10/04 07:49:49;;;;;;;1.52;1.10;;;;;;;27.66;31.12;100488.83;1703526;83;20967;-84
2022/10/04 07:52:24;;;;;;;37.60;34.00;;;;;;;27.54;31.32;100486.95;1715894;83;20999;-85
2022/10/04 07:55:15;;;;;;;12.45;11.35;;;;;;;27.31;30.88;100490.88;1716293;83;21229;-82
2022/10/04 07:58:02;;;;;;;12.82;11.25;;;;;;;26.73;31.21;100494.02;1716328;82;20943;-84
2022/10/04 08:00:57;;;;;;;4.85;4.22;;;;;;;26.55;31.32;100493.22;1717753;83;20936;-83
2022/10/04 08:04:02;;;;;;;2.92;1.22;;;;;;;26.71;31.11;100496.60;1718114;82;20980;-84
2022/10/04 08:06:46;;;;;;;1.45;1.35;;;;;;;26.99;30.82;100501.36;1675274;83;21054;-86
2022/10/04 08:09:25;;;;;;;1.17;0.95;;;;;;;26.96;30.68;100495.02;1716983;83;21171;-83
2022/10/04 08:12:28;;;;;;;0.47;0.42;;;;;;;26.96;30.14;100503.61;1718252;82;20865;-84
2022/10/04 08:15:17;;;;;;;1.02;0.30;;;;;;;26.80;29.89;100498.08;1718116;83;20955;-83
2022/10/04 08:18:11;;;;;;;0.75;0.53;;;;;;;26.35;30.09;100504.38;1716658;83;21030;-85
2022/10/04 08:20:58;;;;;;;1.45;0.30;;;;;;;25.87;30.82;100509.08;1717906;82;20940;-85
2022/10/04 08:24:01;;;;;;;1.00;0.80;;;;;;;25.33;31.29;100517.70;1717654;82;21959;-85
2022/10/04 08:26:57;;;;;;;3.58;0.70;;;;;;;24.97;31.76;100518.02;1591682;88;21499;-84
2022/10/04 08:29:48;;;;;;;1.75;0.30;;;;;;;24.92;32.22;100518.25;1643215;81;21028;-84
2022/10/04 08:33:05;;;;;;;2.22;0.60;;;;;;;25.23;32.04;100514.83;1670500;84;21471;-86
2022/10/04 08:35:39;;;;;;;0.50;0.30;;;;;;;25.79;31.85;100508.72;1694076;84;21584;-86
2022/10/04 08:38:44;;;;;;;0.20;0.20;;;;;;;26.41;30.68;100509.78;1693188;82;21165;-85
2022/10/04 08:41:28;;;;;;;0.62;0.10;;;;;;;26.83;29.78;100509.25;1654608;86;21509;-84
2022/10/04 08:44:22;;;;;;;0.10;0.10;;;;;;;27.34;29.06;100508.48;1655196;86;21016;-84
2022/10/04 08:47:10;;;;;;;;;;;;;;;27.73;28.28;100507.69;1658253;86;20917;-84
2022/10/04 08:50:15;;;;;;;0.40;0.30;;;;;;;28.13;27.67;100509.03;1656731;86;20094;-86
2022/10/04 08:53:06;;;;;;;42.13;38.45;;;;;;;28.36;27.32;100503.67;1657667;86;23918;-85
2022/10/04 08:55:51;;;;;;;10.23;9.33;;;;;;;28.70;26.92;100513.33;1655953;86;20900;-86
2022/10/04 08:58:44;;;;;;;1.77;1.67;;;;;;;29.02;25.94;100510.70;1654846;86;21323;-86
2022/10/04 09:01:38;;;;;;;2.40;1.60;;;;;;;29.27;25.29;100510.25;1655291;86;21344;-86
2022/10/04 09:04:54;;;;;;;0.85;0.30;;;;;;;29.44;25.53;100509.20;1654994;86;20957;-85
2022/10/04 09:08:04;;;;;;;0.85;0.30;;;;;;;29.69;25.07;100505.19;1654734;86;21179;-83
2022/10/04 09:11:05;;;;;;;0.57;0.57;;;;;;;29.88;24.66;100511.98;1654406;86;21055;-85
2022/10/04 09:14:00;;;;;;;25.02;22.77;;;;;;;29.90;24.44;100506.68;1654718;86;21565;-84
2022/10/04 09:16:46;;;;;;;28.52;25.72;;;;;;;29.77;24.51;100511.36;1652461;86;20949;-85
2022/10/04 09:19:51;;;;;;;4.25;3.85;;;;;;;29.82;24.46;100518.30;1641440;87;20980;-89
2022/10/04 09:22:25;;;;;;;1.70;1.60;;;;;;;29.93;24.25;100526.50;1640944;86;21268;-87
2022/10/04 09:25:09;;;;;;;1.32;1.22;;;;;;;30.20;24.27;100518.13;1640941;87;21414;-84
2022/10/04 09:27:51;;;;;;;1.37;0.65;;;;;;;30.50;23.94;100522.28;1640196;87;20957;-84
2022/10/04 09:30:23;;;;;;;0.55;0.20;;;;;;;30.50;23.71;100523.63;1638459;86;20937;-86
2022/10/04 09:33:01;;;;;;;1.02;0.30;;;;;;;30.48;23.77;100518.16;1658844;85;20879;-85
2022/10/04 09:35:48;;;;;;;0.65;0.33;;;;;;;30.52;23.71;100529.66;1656958;86;21444;-85
2022/10/04 09:39:08;;;;;;;0.40;0.23;;;;;;;30.57;23.51;100535.23;1657320;85;20998;-86
2022/10/04 09:41:57;;;;;;;2.08;0.30;;;;;;;30.44;23.66;100538.59;1657409;86;20954;-83
2022/10/04 09:44:41;;;;;;;1.27;0.50;;;;;;;29.93;24.34;100544.08;1657233;86;21443;-85
2022/10/04 09:47:23;;;;;;;2.02;0.60;;;;;;;29.43;25.09;100553.47;1657257;85;20998;-85
2022/10/04 09:50:36;;;;;;;1.50;0.30;;;;;;;29.27;25.13;100549.42;1658755;86;21195;-85
2022/10/04 09:53:43;;;;;;;0.47;0.20;;;;;;;29.19;25.42;100552.36;1659774;86;21112;-86
2022/10/04 09:56:40;;;;;;;5.15;0.30;;;;;;;28.73;25.02;100557.45;1639294;86;20942;-84
2022/10/04 09:59:43;;;;;;;0.30;0.20;;;;;;;27.97;25.69;100557.48;1658608;86;20964;-85
2022/10/04 10:02:30;;;;;;;2.00;0.90;;;;;;;27.68;26.43;100566.74;1658420;86;21387;-84
2022/10/04 10:05:25;;;;;;;2.17;0.30;;;;;;;27.72;26.55;100569.87;1657804;86;21409;-85
2022/10/04 10:08:30;;;;;;;1.10;0.37;;;;;;;27.84;26.18;100563.69;1658539;86;21456;-86
2022/10/04 10:14:44;;;;;;;1.35;0.10;;;;;;;28.26;25.62;100553.50;1659393;84;20959;-86
2022/10/04 10:17:39;;;;;;;1.95;0.20;;;;;;;28.57;25.42;100551.16;1659985;86;20969;-86
2022/10/04 10:20:21;;;;;;;0.53;0.30;;;;;;;28.84;25.12;100560.02;1662249;84;21293;-85
2022/10/04 10:23:46;;;;;;;0.80;0.20;;;;;;;29.10;24.82;100557.22;1669659;84;21394;-85
2022/10/04 10:26:30;;;;;;;1.45;0.20;;;;;;;29.37;24.24;100566.52;1669368;84;21012;-89
2022/10/04 10:29:24;;;;;;;0.85;0.20;;;;;;;29.56;24.22;100557.96;1669572;84;21386;-87
2022/10/04 10:32:14;;;;;;;1.37;0.20;;;;;;;29.71;24.02;100563.09;1683799;84;21122;-88
2022/10/04 10:35:19;;;;;;;6.35;0.28;;;;;;;29.85;24.12;100563.27;1684356;85;21455;-86
2022/10/04 10:38:03;;;;;;;1.12;0.85;;;;;;;29.77;23.67;100577.09;1683935;84;20920;-87
2022/10/04 10:40:58;;;;;;;0.72;0.10;;;;;;;29.03;23.76;100573.92;1684373;85;20900;-87
2022/10/04 10:44:06;;;;;;;2.12;0.30;;;;;;;28.67;24.33;100578.54;1684529;84;20987;-87
2022/10/04 10:47:02;;;;;;;2.50;0.57;;;;;;;28.43;24.14;100576.80;1684744;85;20960;-86
2022/10/04 10:50:00;;;;;;;0.72;0.30;;;;;;;28.05;24.60;100576.11;1634755;87;21183;-87
2022/10/04 10:52:53;;;;;;;2.25;0.30;;;;;;;27.43;25.22;100580.80;1634894;86;21032;-86
2022/10/04 10:55:50;;;;;;;2.42;0.25;;;;;;;26.61;26.18;100575.82;1634718;86;20974;-86
2022/10/04 10:59:06;;;;;;;2.47;0.50;;;;;;;25.90;27.36;100590.69;1634944;87;20939;-86
2022/10/04 11:02:03;;;;;;;0.68;0.53;;;;;;;25.41;28.10;100603.48;1634846;86;21054;-87
2022/10/04 11:05:12;;;;;;;1.20;0.68;;;;;;;24.90;28.79;100604.80;1635109;87;21804;-87
2022/10/04 11:08:16;;;;;;;0.80;0.55;;;;;;;24.38;29.41;100604.66;1634878;87;20939;-88
2022/10/04 11:10:55;;;;;;;;;;;;;;;23.83;30.02;100612.50;1637011;87;20991;-86
2022/10/04 11:13:30;;;;;;;0.90;0.45;;;;;;;23.26;30.88;100614.19;1634890;87;20141;-87
2022/10/04 11:16:35;;;;;;;1.75;0.20;;;;;;;22.78;31.56;100614.68;1634673;87;20939;-87
2022/10/04 11:19:14;;;;;;;1.95;0.60;;;;;;;22.48;32.45;100613.92;1634824;87;21262;-87
2022/10/04 11:22:06;;;;;;;1.15;0.62;;;;;;;22.21;32.99;100620.45;1635180;87;20931;-84
2022/10/04 11:25:13;;;;;;;0.95;0.60;;;;;;;21.91;33.56;100621.94;1670093;85;21033;-85
2022/10/04 11:27:48;;;;;;;3.27;1.00;;;;;;;21.59;34.04;100620.05;1677492;85;20921;-85
2022/10/04 11:30:25;;;;;;;1.90;0.65;;;;;;;21.29;34.80;100624.44;1674819;85;20942;-86
2022/10/04 11:33:13;;;;;;;1.90;0.50;;;;;;;21.09;34.76;100627.04;1665286;86;21160;-90
2022/10/04 11:36:17;;;;;;;1.35;0.40;;;;;;;20.79;35.16;100634.57;1665340;85;20919;-87
2022/10/04 11:39:12;;;;;;;1.67;0.60;;;;;;;20.53;35.51;100637.20;1665258;85;20934;-86
2022/10/04 11:42:06;;;;;;;0.80;0.40;;;;;;;20.27;36.04;100638.01;1664825;85;20930;-88
2022/10/04 11:44:40;;;;;;;2.55;0.80;;;;;;;20.12;36.61;100640.91;1664935;85;21013;-86
2022/10/04 11:47:21;;;;;;;1.70;0.70;;;;;;;20.03;37.06;100639.14;1665197;85;21215;-88
2022/10/04 11:50:25;;;;;;;0.70;0.60;;;;;;;19.96;37.29;100640.75;1664952;84;20866;-86
2022/10/04 11:53:10;;;;;;;0.88;0.42;;;;;;;19.82;37.39;100648.27;1664898;84;20961;-86
2022/10/04 11:56:18;;;;;;;1.05;0.60;;;;;;;19.67;37.74;100655.93;1664773;84;20926;-86
2022/10/04 11:59:16;;;;;;;2.60;0.33;;;;;;;19.54;37.86;100662.11;1625940;87;21006;-87
2022/10/04 12:02:01;;;;;;;2.42;0.65;;;;;;;19.37;37.84;100661.57;1644679;86;21325;-88
2022/10/04 12:05:03;;;;;;;1.87;0.42;;;;;;;19.12;38.00;100671.91;1644150;86;21477;-86
2022/10/04 12:07:56;;;;;;;0.80;0.50;;;;;;;18.91;38.38;100674.77;1644244;86;20986;-87
2022/10/04 12:10:37;;;;;;;0.93;0.42;;;;;;;18.66;38.83;100678.03;1631100;87;20943;-86
2022/10/04 12:13:28;;;;;;;1.15;0.72;;;;;;;18.52;39.35;100677.96;1644615;86;21018;-86
2022/10/04 12:16:13;;;;;;;2.62;0.60;;;;;;;18.45;39.95;100684.33;1644739;87;21018;-85
2022/10/04 12:19:06;;;;;;;1.90;0.60;;;;;;;18.40;39.96;100685.25;1645115;87;20962;-85
2022/10/04 12:21:56;;;;;;;2.05;0.88;;;;;;;18.34;40.41;100685.34;1644715;87;20986;-85
2022/10/04 12:24:32;;;;;;;2.70;0.60;;;;;;;18.29;40.47;100692.04;1644678;87;20982;-86
2022/10/04 12:27:07;;;;;;;1.82;1.10;;;;;;;18.22;40.69;100693.09;1644807;86;20879;-84
2022/10/04 12:30:12;;;;;;;1.95;0.80;;;;;;;18.11;40.42;100699.37;1644634;86;21373;-84
2022/10/04 12:33:02;;;;;;;1.52;0.60;;;;;;;17.92;40.49;100702.00;1644856;86;20958;-85
2022/10/04 12:35:35;;;;;;;1.17;0.90;;;;;;;17.74;41.39;100705.31;1652398;86;21013;-84
2022/10/04 12:38:27;;;;;;;1.80;0.80;;;;;;;17.66;41.60;100714.92;1665529;84;20914;-87
2022/10/04 12:41:34;;;;;;;1.30;0.80;;;;;;;17.59;41.57;100705.34;1665254;86;20990;-85
2022/10/04 12:44:22;;;;;;;2.20;0.80;;;;;;;17.55;41.78;100715.86;1665411;86;21141;-86
2022/10/04 12:47:27;;;;;;;1.00;0.90;;;;;;;17.50;41.92;100716.27;1665478;86;21064;-84
2022/10/04 12:50:15;;;;;;;2.03;1.07;;;;;;;17.39;42.25;100719.02;1666540;85;21005;-83
2022/10/04 12:53:13;;;;;;;0.93;0.68;;;;;;;17.27;42.47;100710.80;1666555;85;21013;-85
2022/10/04 12:56:03;;;;;;;2.85;0.68;;;;;;;17.09;42.45;100723.33;1665361;85;20918;-88
2022/10/04 12:58:53;;;;;;;2.12;0.75;;;;;;;16.89;42.82;100728.17;1665292;85;21268;-85